createdAt,value
2022-09-23T00:02:18.423Z,22.70
2022-09-23T00:04:46.799Z,22.60
2022-09-23T00:07:13.350Z,22.70
2022-09-23T00:09:39.893Z,22.70
2022-09-23T00:12:09.052Z,22.70
2022-09-23T00:14:37.056Z,22.70
2022-09-23T00:17:03.646Z,22.60
2022-09-23T00:19:31.466Z,22.70
2022-09-23T00:21:58.049Z,22.60
2022-09-23T00:24:24.649Z,22.60
2022-09-23T00:26:51.416Z,22.60
2022-09-23T00:29:18.007Z,22.60
2022-09-23T00:31:44.569Z,22.60
2022-09-23T00:34:11.165Z,22.60
2022-09-23T00:36:38.615Z,22.60
2022-09-23T00:39:05.349Z,22.60
2022-09-23T00:41:32.394Z,22.60
2022-09-23T00:43:59.243Z,22.60
2022-09-23T00:46:28.892Z,22.50
2022-09-23T00:48:57.050Z,22.50
2022-09-23T00:51:24.511Z,22.60
2022-09-23T00:53:51.131Z,22.60
2022-09-23T00:56:17.705Z,22.50
2022-09-23T00:58:44.659Z,22.50
2022-09-23T01:01:11.963Z,22.50
2022-09-23T01:03:38.539Z,22.60
2022-09-23T01:06:05.237Z,22.50
2022-09-23T01:08:31.845Z,22.50
2022-09-23T01:11:16.860Z,22.50
2022-09-23T01:14:02.317Z,22.50
2022-09-23T01:16:34.208Z,22.70
2022-09-23T01:19:13.160Z,22.80
2022-09-23T01:22:01.213Z,23.00
2022-09-23T01:24:40.081Z,23.10
2022-09-23T01:27:19.362Z,23.30
2022-09-23T01:30:04.873Z,23.40
2022-09-23T01:32:50.352Z,23.40
2022-09-23T01:35:19.971Z,23.30
2022-09-23T01:37:51.139Z,23.30
2022-09-23T01:40:37.928Z,23.30
2022-09-23T01:43:05.864Z,23.20
2022-09-23T01:45:54.499Z,23.10
2022-09-23T01:48:21.684Z,23.10
2022-09-23T01:50:57.020Z,23.00
2022-09-23T01:53:25.046Z,23.00
2022-09-23T01:55:53.058Z,23.00
2022-09-23T01:58:21.270Z,22.90
2022-09-23T02:00:55.790Z,22.90
2022-09-23T02:03:26.772Z,22.80
2022-09-23T02:05:56.950Z,22.80
2022-09-23T02:08:31.934Z,22.80
2022-09-23T02:11:04.675Z,22.80
2022-09-23T02:13:34.097Z,22.80
2022-09-23T02:16:01.489Z,22.70
2022-09-23T02:18:32.056Z,22.70
2022-09-23T02:21:00.351Z,22.70
2022-09-23T02:23:32.061Z,22.70
2022-09-23T02:25:58.776Z,22.60
2022-09-23T02:28:27.623Z,22.60
2022-09-23T02:30:57.977Z,22.70
2022-09-23T02:33:25.116Z,22.60
2022-09-23T02:35:54.045Z,22.60
2022-09-23T02:38:24.381Z,22.60
2022-09-23T02:40:58.743Z,22.60
2022-09-23T02:43:41.424Z,22.50
2022-09-23T02:46:08.194Z,22.60
2022-09-23T02:48:55.476Z,22.50
2022-09-23T02:51:25.334Z,22.50
2022-09-23T02:53:53.469Z,22.50
2022-09-23T02:56:21.040Z,22.50
2022-09-23T02:58:48.400Z,22.50
2022-09-23T03:01:19.012Z,22.50
2022-09-23T03:03:54.910Z,22.50
2022-09-23T03:06:28.104Z,22.50
2022-09-23T03:08:57.880Z,22.50
2022-09-23T03:11:24.717Z,22.50
2022-09-23T03:13:51.313Z,22.50
2022-09-23T03:16:24.273Z,22.50
2022-09-23T03:18:50.865Z,22.50
2022-09-23T03:21:19.806Z,22.50
2022-09-23T03:23:46.417Z,22.40
2022-09-23T03:26:23.517Z,22.40
2022-09-23T03:28:50.358Z,22.40
2022-09-23T03:31:16.968Z,22.40
2022-09-23T03:33:45.786Z,22.40
2022-09-23T03:36:31.027Z,22.50
2022-09-23T03:39:05.583Z,22.60
2022-09-23T03:41:37.220Z,22.70
2022-09-23T03:44:03.842Z,22.90
2022-09-23T03:46:30.418Z,23.10
2022-09-23T03:48:58.634Z,23.20
2022-09-23T03:51:25.651Z,23.30
2022-09-23T03:53:52.247Z,23.30
2022-09-23T03:56:18.883Z,23.30
2022-09-23T03:58:46.569Z,23.30
2022-09-23T04:01:14.776Z,23.20
2022-09-23T04:03:41.770Z,23.10
2022-09-23T04:06:08.452Z,23.10
2022-09-23T04:08:35.110Z,23.10
2022-09-23T04:11:02.384Z,23.00
2022-09-23T04:13:29.434Z,23.00
2022-09-23T04:15:56.056Z,22.90
2022-09-23T04:18:22.672Z,22.90
2022-09-23T04:20:49.341Z,22.80
2022-09-23T04:23:15.913Z,22.80
2022-09-23T04:25:48.617Z,22.80
2022-09-23T04:28:15.167Z,22.80
2022-09-23T04:30:43.628Z,22.70
2022-09-23T04:33:10.987Z,22.70
2022-09-23T04:35:40.740Z,22.70
2022-09-23T04:38:07.355Z,22.60
2022-09-23T04:40:34.290Z,22.70
2022-09-23T04:43:00.920Z,22.60
2022-09-23T04:45:27.727Z,22.70
2022-09-23T04:47:54.364Z,22.60
2022-09-23T04:50:21.048Z,22.60
2022-09-23T04:52:47.627Z,22.50
2022-09-23T04:55:14.244Z,22.50
2022-09-23T04:57:41.357Z,22.50
2022-09-23T05:00:08.385Z,22.50
2022-09-23T05:02:35.654Z,22.50
2022-09-23T05:05:02.276Z,22.50
2022-09-23T05:07:28.917Z,22.40
2022-09-23T05:09:55.487Z,22.40
2022-09-23T05:12:22.074Z,22.40
2022-09-23T05:14:48.682Z,22.30
2022-09-23T05:17:15.503Z,22.30
2022-09-23T05:19:42.493Z,22.30
2022-09-23T05:22:09.062Z,22.30
2022-09-23T05:24:35.670Z,22.30
2022-09-23T05:27:02.283Z,22.30
2022-09-23T05:29:29.110Z,22.30
2022-09-23T05:31:55.726Z,22.30
2022-09-23T05:34:23.200Z,22.30
2022-09-23T05:36:49.806Z,22.30
2022-09-23T05:39:16.357Z,22.30
2022-09-23T05:41:43.436Z,22.30
2022-09-23T05:44:10.023Z,22.30
2022-09-23T05:46:36.639Z,22.30
2022-09-23T05:49:04.316Z,22.30
2022-09-23T05:51:31.752Z,22.30
2022-09-23T05:53:58.654Z,22.20
2022-09-23T05:56:25.672Z,22.20
2022-09-23T05:58:53.096Z,22.30
2022-09-23T06:01:24.872Z,22.30
2022-09-23T06:03:51.870Z,22.20
2022-09-23T06:06:19.110Z,22.20
2022-09-23T06:08:46.045Z,22.30
2022-09-23T06:11:13.700Z,22.30
2022-09-23T06:13:40.754Z,22.40
2022-09-23T06:16:08.099Z,22.50
2022-09-23T06:18:35.118Z,22.70
2022-09-23T06:21:02.285Z,22.80
2022-09-23T06:23:28.860Z,22.90
2022-09-23T06:25:59.668Z,23.00
2022-09-23T06:28:28.386Z,23.10
2022-09-23T06:30:58.866Z,23.10
2022-09-23T06:33:34.697Z,23.10
2022-09-23T06:36:04.023Z,23.00
2022-09-23T06:38:30.736Z,23.00
2022-09-23T06:40:57.684Z,22.90
2022-09-23T06:43:24.651Z,22.80
2022-09-23T06:45:54.676Z,22.80
2022-09-23T06:48:21.572Z,22.70
2022-09-23T06:50:51.146Z,22.70
2022-09-23T06:53:17.709Z,22.70
2022-09-23T06:55:44.336Z,22.60
2022-09-23T06:58:10.941Z,22.60
2022-09-23T07:00:37.655Z,22.60
2022-09-23T07:03:08.067Z,22.60
2022-09-23T07:05:34.978Z,22.60
2022-09-23T07:08:01.650Z,22.50
2022-09-23T07:10:29.250Z,22.50
2022-09-23T07:12:55.845Z,22.50
2022-09-23T07:15:22.433Z,22.50
2022-09-23T07:17:49.468Z,22.50
2022-09-23T07:20:17.957Z,22.50
2022-09-23T07:22:48.859Z,22.50
2022-09-23T07:25:15.488Z,22.50
2022-09-23T07:27:42.061Z,22.40
2022-09-23T07:30:16.775Z,22.40
2022-09-23T07:32:49.418Z,22.40
2022-09-23T07:35:16.884Z,22.40
2022-09-23T07:37:43.788Z,22.40
2022-09-23T07:40:10.465Z,22.40
2022-09-23T07:42:38.531Z,22.40
2022-09-23T07:45:06.885Z,22.40
2022-09-23T07:47:33.525Z,22.40
2022-09-23T07:50:00.114Z,22.40
2022-09-23T07:52:26.741Z,22.40
2022-09-23T07:54:53.342Z,22.40
2022-09-23T07:57:19.899Z,22.40
2022-09-23T07:59:46.619Z,22.40
2022-09-23T08:02:14.595Z,22.40
2022-09-23T08:04:41.257Z,22.40
2022-09-23T08:07:08.977Z,22.30
2022-09-23T08:09:39.409Z,22.30
2022-09-23T08:12:06.032Z,22.30
2022-09-23T08:14:33.942Z,22.30
2022-09-23T08:17:00.570Z,22.30
2022-09-23T08:19:27.190Z,22.30
2022-09-23T08:21:54.402Z,22.30
2022-09-23T08:24:21.859Z,22.30
2022-09-23T08:26:48.496Z,22.30
2022-09-23T08:29:15.501Z,22.30
2022-09-23T08:31:42.995Z,22.30
2022-09-23T08:34:09.649Z,22.40
2022-09-23T08:36:36.280Z,22.50
2022-09-23T08:39:03.890Z,22.60
2022-09-23T08:41:52.878Z,22.70
2022-09-23T08:44:21.607Z,22.90
2022-09-23T08:46:52.701Z,23.00
2022-09-23T08:49:25.344Z,23.10
2022-09-23T08:51:54.269Z,23.20
2022-09-23T08:54:20.917Z,23.20
2022-09-23T08:56:49.162Z,23.20
2022-09-23T08:59:21.236Z,23.10
2022-09-23T09:01:47.860Z,23.10
2022-09-23T09:04:23.705Z,23.00
2022-09-23T09:06:53.904Z,23.00
2022-09-23T09:09:26.058Z,22.90
2022-09-23T09:11:54.805Z,22.80
2022-09-23T09:14:23.887Z,22.80
2022-09-23T09:16:59.917Z,22.70
2022-09-23T09:19:40.646Z,22.80
2022-09-23T09:22:07.441Z,22.70
2022-09-23T09:24:34.455Z,22.70
2022-09-23T09:27:01.863Z,22.70
2022-09-23T09:29:36.964Z,22.70
2022-09-23T09:32:27.118Z,22.60
2022-09-23T09:34:55.401Z,22.60
2022-09-23T09:37:24.981Z,22.60
2022-09-23T09:39:51.925Z,22.60
2022-09-23T09:42:26.967Z,22.50
2022-09-23T09:44:55.472Z,22.60
2022-09-23T09:47:41.400Z,22.60
2022-09-23T09:50:09.110Z,22.50
2022-09-23T09:52:40.506Z,22.50
2022-09-23T09:55:13.158Z,22.50
2022-09-23T09:57:55.958Z,22.50
2022-09-23T10:00:22.526Z,22.50
2022-09-23T10:03:15.530Z,22.50
2022-09-23T10:05:45.199Z,22.50
2022-09-23T10:08:21.174Z,22.50
2022-09-23T10:10:54.550Z,22.40
2022-09-23T10:13:27.544Z,22.50
2022-09-23T10:15:59.644Z,22.50
2022-09-23T10:18:28.356Z,22.40
2022-09-23T10:21:25.489Z,22.50
2022-09-23T10:23:55.852Z,22.50
2022-09-23T10:26:26.113Z,22.40
2022-09-23T10:28:53.186Z,22.40
2022-09-23T10:31:26.935Z,22.40
2022-09-23T10:33:59.644Z,22.50
2022-09-23T10:36:27.050Z,22.70
2022-09-23T10:39:22.128Z,22.80
2022-09-23T10:42:21.939Z,22.90
2022-09-23T10:45:21.253Z,23.10
2022-09-23T10:47:47.987Z,23.20
2022-09-23T10:50:17.190Z,23.30
2022-09-23T10:52:59.306Z,23.20
2022-09-23T10:55:38.124Z,23.30
2022-09-23T10:58:14.983Z,23.20
2022-09-23T11:00:41.581Z,23.10
2022-09-23T11:03:20.470Z,23.10
2022-09-23T11:05:47.079Z,23.00
2022-09-23T11:08:23.848Z,23.00
2022-09-23T11:10:56.199Z,23.00
2022-09-23T11:13:35.074Z,23.00
2022-09-23T11:16:14.031Z,22.90
2022-09-23T11:18:56.042Z,22.80
2022-09-23T11:21:31.857Z,22.80
2022-09-23T11:24:01.474Z,22.80
2022-09-23T11:26:33.277Z,22.70
2022-09-23T11:29:10.221Z,22.70
2022-09-23T11:31:48.929Z,22.70
2022-09-23T11:34:26.434Z,22.70
2022-09-23T11:37:12.842Z,22.70
2022-09-23T11:39:44.179Z,22.70
2022-09-23T11:42:15.965Z,22.70
2022-09-23T11:44:43.562Z,22.60
2022-09-23T11:47:16.468Z,22.60
2022-09-23T11:49:49.185Z,22.60
2022-09-23T11:52:19.703Z,22.60
2022-09-23T11:55:17.636Z,22.60
2022-09-23T11:58:01.867Z,22.60
2022-09-23T12:00:32.538Z,22.60
2022-09-23T12:03:05.598Z,22.60
2022-09-23T12:05:40.429Z,22.60
2022-09-23T12:08:10.625Z,22.80
2022-09-23T12:10:40.391Z,22.90
2022-09-23T12:13:09.992Z,23.10
2022-09-23T12:15:37.249Z,23.20
2022-09-23T12:18:04.215Z,23.40
2022-09-23T12:20:43.018Z,23.40
2022-09-23T12:23:28.610Z,23.30
2022-09-23T12:25:56.420Z,23.30
2022-09-23T12:28:24.589Z,23.20
2022-09-23T12:30:51.506Z,23.20
2022-09-23T12:33:22.527Z,23.10
2022-09-23T12:35:49.360Z,23.10
2022-09-23T12:38:22.313Z,23.10
2022-09-23T12:40:49.678Z,23.00
2022-09-23T12:43:20.100Z,23.00
2022-09-23T12:45:48.273Z,22.90
2022-09-23T12:48:18.289Z,23.00
2022-09-23T12:50:51.474Z,22.90
2022-09-23T12:53:33.211Z,22.90
2022-09-23T12:56:00.253Z,22.80
2022-09-23T12:58:42.198Z,22.80
2022-09-23T13:01:17.430Z,22.80
2022-09-23T13:04:09.809Z,22.80
2022-09-23T13:06:41.946Z,22.80
2022-09-23T13:09:27.116Z,22.80
2022-09-23T13:11:53.950Z,22.70
2022-09-23T13:14:27.262Z,22.70
2022-09-23T13:16:54.324Z,22.60
2022-09-23T13:19:27.260Z,22.70
2022-09-23T13:21:53.870Z,22.70
2022-09-23T13:24:25.071Z,22.60
2022-09-23T13:27:05.918Z,22.70
2022-09-23T13:29:43.718Z,22.60
2022-09-23T13:32:15.118Z,22.70
2022-09-23T13:34:44.215Z,22.80
2022-09-23T13:37:11.392Z,22.90
2022-09-23T13:39:37.992Z,23.10
2022-09-23T13:42:05.188Z,23.20
2022-09-23T13:44:31.751Z,23.30
2022-09-23T13:46:58.733Z,23.40
2022-09-23T13:49:29.481Z,23.40
2022-09-23T13:51:56.199Z,23.30
2022-09-23T13:54:32.188Z,23.30
2022-09-23T13:56:59.029Z,23.20
2022-09-23T13:59:26.989Z,23.20
2022-09-23T14:02:06.222Z,23.10
2022-09-23T14:04:32.934Z,23.10
2022-09-23T14:06:59.548Z,23.10
2022-09-23T14:09:27.536Z,23.00
2022-09-23T14:11:54.851Z,23.00
2022-09-23T14:14:22.933Z,22.90
2022-09-23T14:16:50.000Z,22.90
2022-09-23T14:19:20.733Z,22.80
2022-09-23T14:21:47.939Z,22.90
2022-09-23T14:24:17.802Z,22.80
2022-09-23T14:26:46.187Z,22.80
2022-09-23T14:29:25.707Z,22.80
2022-09-23T14:31:58.193Z,22.80
2022-09-23T14:34:40.789Z,22.80
2022-09-23T14:37:31.355Z,22.80
2022-09-23T14:39:58.026Z,22.70
2022-09-23T14:42:26.919Z,22.80
2022-09-23T14:44:53.487Z,22.70
2022-09-23T14:47:20.070Z,22.70
2022-09-23T14:50:07.626Z,22.70
2022-09-23T14:52:34.309Z,22.70
2022-09-23T14:55:01.304Z,22.80
2022-09-23T14:57:29.043Z,23.00
2022-09-23T15:00:09.480Z,23.00
2022-09-23T15:02:36.982Z,23.10
2022-09-23T15:05:22.409Z,23.30
2022-09-23T15:07:55.698Z,23.40
2022-09-23T15:10:23.579Z,23.40
2022-09-23T15:12:50.948Z,23.40
2022-09-23T15:15:17.622Z,23.30
2022-09-23T15:17:44.205Z,23.30
2022-09-23T15:20:22.070Z,23.20
2022-09-23T15:22:49.695Z,23.20
2022-09-23T15:25:21.347Z,23.10
2022-09-23T15:28:00.346Z,23.10
2022-09-23T15:30:27.329Z,23.10
2022-09-23T15:32:54.084Z,23.10
2022-09-23T15:35:21.596Z,23.00
2022-09-23T15:37:48.843Z,23.00
2022-09-23T15:40:22.921Z,23.00
2022-09-23T15:42:52.360Z,23.00
2022-09-23T15:45:26.550Z,22.90
2022-09-23T15:47:53.137Z,22.90
2022-09-23T15:50:19.772Z,22.90
2022-09-23T15:52:46.340Z,22.90
2022-09-23T15:55:16.742Z,22.80
2022-09-23T15:57:43.318Z,22.80
2022-09-23T16:00:12.347Z,22.80
2022-09-23T16:02:39.208Z,22.80
2022-09-23T16:05:07.680Z,22.80
2022-09-23T16:07:34.239Z,22.80
2022-09-23T16:10:01.835Z,22.80
2022-09-23T16:12:28.412Z,22.70
2022-09-23T16:14:54.972Z,22.70
2022-09-23T16:17:22.207Z,22.90
2022-09-23T16:19:48.809Z,23.00
2022-09-23T16:22:15.449Z,23.20
2022-09-23T16:24:42.159Z,23.30
2022-09-23T16:27:09.748Z,23.50
2022-09-23T16:29:36.387Z,23.60
2022-09-23T16:32:03.151Z,23.60
2022-09-23T16:34:30.028Z,23.60
2022-09-23T16:36:56.662Z,23.50
2022-09-23T16:39:23.400Z,23.40
2022-09-23T16:41:49.973Z,23.40
2022-09-23T16:44:17.536Z,23.40
2022-09-23T16:46:44.095Z,23.30
2022-09-23T16:49:12.124Z,23.30
2022-09-23T16:51:38.952Z,23.20
2022-09-23T16:54:07.922Z,23.20
2022-09-23T16:56:35.280Z,23.20
2022-09-23T16:59:01.861Z,23.10
2022-09-23T17:01:47.366Z,23.10
2022-09-23T17:04:14.484Z,23.10
2022-09-23T17:06:50.956Z,23.10
2022-09-23T17:09:18.762Z,23.10
2022-09-23T17:11:47.826Z,23.00
2022-09-23T17:14:15.046Z,23.00
2022-09-23T17:16:41.736Z,23.00
2022-09-23T17:19:09.069Z,22.90
2022-09-23T17:21:35.775Z,22.90
2022-09-23T17:24:02.556Z,22.90
2022-09-23T17:26:29.217Z,22.90
2022-09-23T17:28:56.268Z,22.90
2022-09-23T17:31:23.669Z,22.90
2022-09-23T17:33:50.504Z,22.80
2022-09-23T17:36:17.186Z,22.80
2022-09-23T17:38:44.963Z,22.80
2022-09-23T17:41:12.003Z,22.90
2022-09-23T17:43:38.920Z,23.00
2022-09-23T17:46:06.776Z,23.10
2022-09-23T17:48:34.104Z,23.20
2022-09-23T17:51:04.311Z,23.40
2022-09-23T17:53:31.378Z,23.50
2022-09-23T17:56:01.922Z,23.60
2022-09-23T17:58:28.848Z,23.50
2022-09-23T18:00:55.952Z,23.50
2022-09-23T18:03:23.166Z,23.40
2022-09-23T18:05:49.797Z,23.40
2022-09-23T18:08:16.364Z,23.30
2022-09-23T18:10:43.034Z,23.30
2022-09-23T18:13:09.605Z,23.20
2022-09-23T18:15:36.877Z,23.20
2022-09-23T18:18:03.872Z,23.20
2022-09-23T18:20:30.521Z,23.10
2022-09-23T18:22:57.128Z,23.10
2022-09-23T18:25:38.738Z,23.10
2022-09-23T18:28:06.367Z,23.10
2022-09-23T18:30:33.751Z,23.00
2022-09-23T18:33:00.306Z,23.00
2022-09-23T18:35:27.294Z,23.00
2022-09-23T18:37:53.851Z,22.90
2022-09-23T18:40:20.545Z,22.90
2022-09-23T18:42:47.706Z,22.90
2022-09-23T18:45:14.321Z,22.90
2022-09-23T18:47:59.575Z,22.90
2022-09-23T18:50:43.489Z,22.90
2022-09-23T18:53:10.172Z,22.80
2022-09-23T18:55:36.830Z,22.80
2022-09-23T18:58:03.397Z,22.80
2022-09-23T19:00:30.229Z,22.80
2022-09-23T19:02:57.608Z,22.80
2022-09-23T19:05:24.189Z,22.70
2022-09-23T19:07:51.030Z,22.70
2022-09-23T19:10:19.198Z,22.70
2022-09-23T19:12:46.617Z,22.80
2022-09-23T19:15:14.183Z,22.80
2022-09-23T19:17:40.908Z,22.70
2022-09-23T19:20:07.817Z,22.70
2022-09-23T19:22:34.454Z,22.70
2022-09-23T19:25:01.037Z,22.70
2022-09-23T19:27:27.632Z,22.70
2022-09-23T19:29:54.982Z,22.70
2022-09-23T19:32:24.379Z,22.80
2022-09-23T19:34:50.962Z,22.90
2022-09-23T19:37:17.524Z,23.10
2022-09-23T19:39:44.774Z,23.30
2022-09-23T19:42:11.427Z,23.40
2022-09-23T19:44:39.248Z,23.50
2022-09-23T19:47:06.117Z,23.50
2022-09-23T19:49:33.218Z,23.50
2022-09-23T19:52:00.426Z,23.50
2022-09-23T19:54:27.441Z,23.40
2022-09-23T19:56:54.184Z,23.40
2022-09-23T19:59:20.789Z,23.30
2022-09-23T20:01:47.958Z,23.30
2022-09-23T20:04:15.732Z,23.20
2022-09-23T20:06:42.451Z,23.20
2022-09-23T20:09:09.142Z,23.20
2022-09-23T20:11:35.793Z,23.10
2022-09-23T20:14:04.754Z,23.10
2022-09-23T20:16:32.786Z,23.10
2022-09-23T20:18:59.860Z,23.00
2022-09-23T20:21:26.554Z,23.00
2022-09-23T20:23:53.103Z,23.00
2022-09-23T20:26:38.273Z,23.00
2022-09-23T20:29:05.030Z,23.00
2022-09-23T20:31:32.246Z,22.90
2022-09-23T20:33:59.048Z,22.90
2022-09-23T20:36:26.224Z,22.90
2022-09-23T20:38:56.180Z,22.90
2022-09-23T20:41:22.878Z,22.90
2022-09-23T20:43:53.955Z,22.80
2022-09-23T20:46:23.347Z,22.80
2022-09-23T20:48:50.252Z,22.80
2022-09-23T20:51:16.959Z,22.80
2022-09-23T20:53:45.831Z,22.80
2022-09-23T20:56:13.926Z,22.80
2022-09-23T20:58:40.502Z,22.80
2022-09-23T21:01:10.742Z,22.80
2022-09-23T21:03:38.525Z,22.70
2022-09-23T21:06:05.733Z,22.70
2022-09-23T21:08:33.387Z,22.70
2022-09-23T21:11:02.354Z,22.70
2022-09-23T21:13:29.262Z,22.70
2022-09-23T21:15:55.879Z,22.70
2022-09-23T21:18:24.033Z,22.70
2022-09-23T21:20:54.381Z,22.70
2022-09-23T21:23:23.640Z,22.60
2022-09-23T21:25:50.269Z,22.60
2022-09-23T21:28:16.822Z,22.60
2022-09-23T21:30:44.872Z,22.70
2022-09-23T21:33:14.586Z,22.60
2022-09-23T21:35:41.185Z,22.60
2022-09-23T21:38:07.751Z,22.60
2022-09-23T21:40:53.073Z,22.60
2022-09-23T21:43:20.035Z,22.60
2022-09-23T21:45:47.379Z,22.70
2022-09-23T21:48:13.941Z,22.80
2022-09-23T21:50:43.436Z,23.00
2022-09-23T21:53:10.005Z,23.10
2022-09-23T21:55:36.857Z,23.30
2022-09-23T21:58:03.418Z,23.30
2022-09-23T22:00:30.029Z,23.50
2022-09-23T22:02:56.625Z,23.50
2022-09-23T22:05:23.196Z,23.50
2022-09-23T22:07:49.746Z,23.40
2022-09-23T22:10:16.294Z,23.40
2022-09-23T22:12:42.883Z,23.30
2022-09-23T22:15:09.937Z,23.30
2022-09-23T22:17:36.513Z,23.20
2022-09-23T22:20:03.186Z,23.20
2022-09-23T22:22:30.375Z,23.10
2022-09-23T22:24:56.962Z,23.10
2022-09-23T22:27:24.617Z,23.10
2022-09-23T22:30:10.022Z,23.00
2022-09-23T22:32:46.098Z,23.00
2022-09-23T22:35:18.743Z,22.90
2022-09-23T22:37:45.363Z,22.90
2022-09-23T22:40:14.380Z,22.90
2022-09-23T22:42:41.680Z,22.90
2022-09-23T22:45:08.928Z,22.90
2022-09-23T22:47:37.076Z,22.80
2022-09-23T22:50:04.450Z,22.80
2022-09-23T22:52:31.545Z,22.80
2022-09-23T22:54:58.117Z,22.80
2022-09-23T22:57:24.670Z,22.70
2022-09-23T22:59:51.230Z,22.70
2022-09-23T23:02:18.382Z,22.70
2022-09-23T23:04:46.493Z,22.70
2022-09-23T23:07:13.664Z,22.70
2022-09-23T23:09:40.347Z,22.70
2022-09-23T23:12:07.039Z,22.60
2022-09-23T23:14:33.633Z,22.60
2022-09-23T23:17:00.190Z,22.70
2022-09-23T23:19:26.737Z,22.60
2022-09-23T23:21:53.430Z,22.60
2022-09-23T23:24:21.301Z,22.60
2022-09-23T23:26:48.022Z,22.60
2022-09-23T23:29:15.138Z,22.60
2022-09-23T23:31:41.791Z,22.60
2022-09-23T23:34:10.875Z,22.60
2022-09-23T23:36:37.529Z,22.60
2022-09-23T23:39:04.205Z,22.60
2022-09-23T23:41:31.532Z,22.60
2022-09-23T23:43:58.583Z,22.60
2022-09-23T23:46:26.449Z,22.60
2022-09-23T23:48:53.276Z,22.60
2022-09-23T23:51:19.921Z,22.60
2022-09-23T23:53:46.672Z,22.60
2022-09-23T23:56:13.954Z,22.60
2022-09-23T23:58:41.147Z,22.50
